Cooper Hill, Missouri
Current Conditions -  °F | °C
As of 7:53 PM on Monday 24 Nov 2014 (Local Time) from KVIH Reporting Station
Broken Clouds Broken Clouds  
Wind Chill: 26°   Ceiling: 4000
Heat Index: 35°   Visibility: 10mi
Dew Point: 26°   Wind: 13mph
Humidity: 70%   Direction: 290°WNW
Pressure: 29.96"   Gusts: NA
Location:  38.3239°N, 91.6268°W
Report Text: KVIH 250153Z AUTO 29011KT 10SM BKN040 02/M03 A2996 RMK AO2 SLP151 T00171033
Loading
Personal Weather Stations






























Interactive Weather Map New forecast layout! Learn more

10-Day Weather Forecast

Advertisements
Track Severe Weather on mobile